METAR rapporten vliegvelden

   
EHAM - Amsterdam
Gewijzigd: 23-10-2018 04:55
Gedeeltelijk bewolkt  
Gedeeltelijk bewolkt  
   Wind: Westen 33.3 km/h
Wind: Westen 33.3 km/h
Temperatuur: 12°C
Dauwpunt: 8°C
Vochtigheid: 77%
Barometer: 1027 hPa
Bewolking: Gedeeltelijk bewolkt
Zicht: meer dan 10 km
Bewolking: Gedeeltelijk bewolkt 2400 ft
EHAM 230255Z 27018KT 9999 SCT024 12/08 Q1027 NOSIG
EHBK - Maastricht
Gewijzigd: 23-10-2018 04:55
Gedeeltelijk bewolkt  
Gedeeltelijk bewolkt  
   Wind: ZW 14.8 km/h
Wind: ZW 14.8 km/h
Temperatuur: 4°C
Voelt als: 1°C
Dauwpunt: 4°C
Vochtigheid: 100%
Barometer: 1030 hPa
Bewolking: Gedeeltelijk bewolkt
Zicht: meer dan 10 km
Bewolking: Gedeeltelijk bewolkt
EHBK 230255Z AUTO 22008KT 9999 NSC 04/04 Q1030
ELLX - Luxemburg
Gewijzigd: 23-10-2018 04:50
Licht bewolkt  
Licht bewolkt  
   Wind: Westen 7.4 km/h
Wind: Westen 7.4 km/h
Temperatuur: 4°C
Voelt als: 2°C
Dauwpunt: 3°C
Vochtigheid: 93%
Barometer: 1031 hPa
Bewolking: Licht bewolkt
Zicht: 6 km
Bewolking: Licht bewolkt 100 ft
ELLX 230250Z 26004KT 200V300 6000 R06/0325VP2000D FEW001 04/03 Q1031 NOSIG
EDDL - Dusseldorf
Gewijzigd: 23-10-2018 04:50
Helder  
Helder  
   Wind: ZW 13 km/h
Wind: ZW 13 km/h
Temperatuur: 5°C
Voelt als: 2°C
Dauwpunt: 3°C
Vochtigheid: 87%
Barometer: 1030 hPa
Zicht: meer dan 10 km
Bewolking: Helder
EDDL 230250Z 23007KT CAVOK 05/03 Q1030 NOSIG
  

Script ontwikkeld door  Saratoga-weather.org Aangepast voor de template door  Weerstation Leuven